createdAt,value
2023-05-03T00:01:33.427Z,40.81
2023-05-03T00:04:24.326Z,40.48
2023-05-03T00:06:58.727Z,40.60
2023-05-03T00:10:07.452Z,40.55
2023-05-03T00:13:15.294Z,40.61
2023-05-03T00:15:55.173Z,40.49
2023-05-03T00:19:37.409Z,40.82
2023-05-03T00:22:31.982Z,41.08
2023-05-03T00:25:05.083Z,41.22
2023-05-03T00:27:39.859Z,41.52
2023-05-03T00:30:28.661Z,42.06
2023-05-03T00:33:20.580Z,42.29
2023-05-03T00:36:00.498Z,42.37
2023-05-03T00:38:37.254Z,42.52
2023-05-03T00:41:16.175Z,42.65
2023-05-03T00:43:57.335Z,42.85
2023-05-03T00:46:39.923Z,43.05
2023-05-03T00:49:12.270Z,43.15
2023-05-03T00:51:52.272Z,43.44
2023-05-03T00:54:31.154Z,43.55
2023-05-03T00:57:12.621Z,43.71
2023-05-03T00:59:46.905Z,43.85
2023-05-03T01:02:24.962Z,44.00
2023-05-03T01:04:59.408Z,44.42
2023-05-03T01:08:10.720Z,44.37
2023-05-03T01:11:15.510Z,44.74
2023-05-03T01:14:05.982Z,45.17
2023-05-03T01:16:54.115Z,45.41
2023-05-03T01:19:28.117Z,45.67
2023-05-03T01:22:47.344Z,45.77
2023-05-03T01:25:17.358Z,46.19
2023-05-03T01:27:55.583Z,46.44
2023-05-03T01:30:50.497Z,46.66
2023-05-03T01:34:43.930Z,46.83
2023-05-03T01:37:21.783Z,47.26
2023-05-03T01:40:06.365Z,47.33
2023-05-03T01:42:40.868Z,47.36
2023-05-03T01:50:14.970Z,47.83
2023-05-03T01:52:54.547Z,48.24
2023-05-03T01:55:30.472Z,48.35
2023-05-03T01:58:04.711Z,48.66
2023-05-03T02:00:46.813Z,48.76
2023-05-03T02:03:42.517Z,48.94
2023-05-03T02:06:29.495Z,49.17
2023-05-03T02:09:14.244Z,49.20
2023-05-03T02:12:17.597Z,49.34
2023-05-03T02:15:00.657Z,49.57
2023-05-03T02:17:51.747Z,49.71
2023-05-03T02:20:32.400Z,49.83
2023-05-03T02:23:09.698Z,49.76
2023-05-03T02:25:43.908Z,50.08
2023-05-03T02:28:34.073Z,50.51
2023-05-03T02:31:11.948Z,50.60
2023-05-03T02:34:28.310Z,50.76
2023-05-03T02:37:14.828Z,51.23
2023-05-03T02:42:09.680Z,51.69
2023-05-03T02:44:37.249Z,51.44
2023-05-03T02:47:04.657Z,51.44
2023-05-03T02:49:32.594Z,51.52
2023-05-03T02:51:59.881Z,51.73
2023-05-03T02:54:27.132Z,51.88
2023-05-03T02:56:59.341Z,51.91
2023-05-03T02:59:26.446Z,52.07
2023-05-03T03:01:54.107Z,52.02
2023-05-03T03:04:21.722Z,52.18
2023-05-03T03:06:49.063Z,52.17
2023-05-03T03:09:17.031Z,52.24
2023-05-03T03:11:44.883Z,52.30
2023-05-03T03:14:13.420Z,52.35
2023-05-03T03:16:41.431Z,52.44
2023-05-03T03:19:08.784Z,52.48
2023-05-03T03:21:37.510Z,52.50
2023-05-03T03:24:05.285Z,52.51
2023-05-03T03:26:32.737Z,52.42
2023-05-03T03:29:03.873Z,52.45
2023-05-03T03:31:33.361Z,52.54
2023-05-03T03:34:01.883Z,52.50
2023-05-03T03:36:31.023Z,52.58
2023-05-03T03:38:58.356Z,52.58
2023-05-03T03:41:27.719Z,52.53
2023-05-03T03:43:55.923Z,52.57
2023-05-03T03:46:23.272Z,52.37
2023-05-03T03:48:51.246Z,52.49
2023-05-03T03:51:20.320Z,52.41
2023-05-03T03:53:48.128Z,52.47
2023-05-03T03:56:19.256Z,52.43
2023-05-03T03:58:47.712Z,52.37
2023-05-03T04:01:15.117Z,52.34
2023-05-03T04:03:46.562Z,52.39
2023-05-03T04:06:14.412Z,52.37
2023-05-03T04:08:44.648Z,52.03
2023-05-03T04:11:17.458Z,52.31
2023-05-03T04:13:49.964Z,52.01
2023-05-03T04:16:21.325Z,51.93
2023-05-03T04:18:50.266Z,51.87
2023-05-03T04:21:18.712Z,51.68
2023-05-03T04:23:52.735Z,51.49
2023-05-03T04:26:31.153Z,51.43
2023-05-03T04:29:04.729Z,51.56
2023-05-03T04:31:33.220Z,51.47
2023-05-03T04:34:03.879Z,51.28
2023-05-03T04:36:37.257Z,51.51
2023-05-03T04:39:50.381Z,50.97
2023-05-03T04:42:54.531Z,50.59
2023-05-03T04:46:28.186Z,50.10
2023-05-03T04:50:40.919Z,49.70
2023-05-03T04:53:37.083Z,49.16
2023-05-03T04:56:37.446Z,48.88
2023-05-03T04:59:32.510Z,48.72
2023-05-03T05:03:19.814Z,48.02
2023-05-03T05:06:38.525Z,46.88
2023-05-03T05:09:51.798Z,46.29
2023-05-03T05:16:45.259Z,45.60
2023-05-03T05:20:58.075Z,45.19
2023-05-03T05:23:51.135Z,44.88
2023-05-03T05:27:11.881Z,44.36
2023-05-03T05:33:55.503Z,42.96
2023-05-03T05:40:42.199Z,42.81
2023-05-03T05:43:55.206Z,42.66
2023-05-03T05:50:18.527Z,41.86
2023-05-03T05:54:44.513Z,41.23
2023-05-03T05:58:45.720Z,40.86
2023-05-03T06:08:51.979Z,40.21
2023-05-03T06:20:01.213Z,40.13
2023-05-03T06:27:16.227Z,40.83
2023-05-03T06:43:10.402Z,41.34
2023-05-03T06:54:33.321Z,40.57
2023-05-03T07:01:37.998Z,39.19
2023-05-03T07:08:03.916Z,38.98
2023-05-03T07:18:20.362Z,38.58
2023-05-03T07:21:30.558Z,38.52
2023-05-03T07:28:46.304Z,38.41
2023-05-03T07:32:17.945Z,38.02
2023-05-03T07:43:55.877Z,37.00
2023-05-03T07:51:19.502Z,37.46
2023-05-03T07:59:37.907Z,36.58
2023-05-03T08:02:57.327Z,36.32
2023-05-03T08:07:00.678Z,36.24
2023-05-03T08:10:31.142Z,35.66
2023-05-03T08:14:05.012Z,35.27
2023-05-03T08:21:41.865Z,35.10
2023-05-03T08:29:08.605Z,34.46
2023-05-03T08:32:59.634Z,34.29
2023-05-03T08:36:20.188Z,34.43
2023-05-03T08:39:07.049Z,34.13
2023-05-03T08:41:59.731Z,34.13
2023-05-03T08:45:31.097Z,33.96
2023-05-03T08:48:31.720Z,33.37
2023-05-03T08:51:29.546Z,33.06
2023-05-03T08:54:47.189Z,32.46
2023-05-03T08:57:31.453Z,32.10
2023-05-03T09:00:14.113Z,31.58
2023-05-03T09:03:08.411Z,31.79
2023-05-03T09:06:03.010Z,32.38
2023-05-03T09:09:08.232Z,32.25
2023-05-03T09:12:03.402Z,32.29
2023-05-03T09:19:28.199Z,32.64
2023-05-03T09:22:55.882Z,30.45
2023-05-03T09:30:51.807Z,29.66
2023-05-03T09:33:55.836Z,30.37
2023-05-03T09:37:40.744Z,30.35
2023-05-03T09:41:16.766Z,29.91
2023-05-03T09:44:54.587Z,30.15
2023-05-03T09:47:59.075Z,29.85
2023-05-03T09:51:09.515Z,29.50
2023-05-03T09:59:24.294Z,29.77
2023-05-03T10:07:55.517Z,29.48
2023-05-03T10:10:40.142Z,29.74
2023-05-03T10:13:18.697Z,29.61
2023-05-03T10:35:18.336Z,28.55
2023-05-03T10:38:59.538Z,28.01
2023-05-03T10:46:41.993Z,27.46
2023-05-03T10:52:56.732Z,26.91
2023-05-03T11:00:44.886Z,26.65
2023-05-03T11:13:50.121Z,26.80
2023-05-03T11:17:14.813Z,26.66
2023-05-03T11:21:12.194Z,25.99
2023-05-03T11:23:55.080Z,25.57
2023-05-03T11:26:37.802Z,25.60
2023-05-03T11:34:58.908Z,26.37
2023-05-03T11:38:40.561Z,26.52
2023-05-03T11:41:47.849Z,26.36
2023-05-03T11:49:58.218Z,25.43
2023-05-03T11:57:48.000Z,25.80
2023-05-03T12:01:40.634Z,25.84
2023-05-03T12:04:45.623Z,26.07
2023-05-03T12:07:58.887Z,25.35
2023-05-03T12:16:34.383Z,25.61
2023-05-03T12:21:28.222Z,25.65
2023-05-03T12:44:48.245Z,25.94
2023-05-03T12:55:25.272Z,25.56
2023-05-03T12:58:49.927Z,25.71
2023-05-03T13:05:45.778Z,25.58
2023-05-03T13:18:22.936Z,25.52
2023-05-03T13:21:17.303Z,25.26
2023-05-03T13:24:19.319Z,25.40
2023-05-03T13:30:59.368Z,25.49
2023-05-03T16:59:03.021Z,30.07
2023-05-03T17:02:14.173Z,30.41
2023-05-03T17:05:29.737Z,30.79
2023-05-03T17:09:14.626Z,31.16
2023-05-03T17:22:15.706Z,32.41
2023-05-03T17:25:20.229Z,32.54
2023-05-03T17:33:49.951Z,33.15
2023-05-03T17:46:01.309Z,34.38
2023-05-03T17:48:58.123Z,34.58
2023-05-03T18:01:13.829Z,35.55
2023-05-03T18:04:44.462Z,35.81
2023-05-03T18:16:58.165Z,36.91
2023-05-03T18:38:44.480Z,38.70
2023-05-03T18:51:11.209Z,39.10
2023-05-03T18:58:58.151Z,39.37
2023-05-03T19:16:31.413Z,40.20
2023-05-03T19:19:31.864Z,40.32
2023-05-03T19:26:58.335Z,40.51
2023-05-03T19:38:43.755Z,41.25
2023-05-03T19:42:31.845Z,41.41
2023-05-03T19:46:21.904Z,41.83
2023-05-03T19:49:16.876Z,42.13
2023-05-03T19:52:08.767Z,42.40
2023-05-03T19:59:54.189Z,42.75
2023-05-03T20:13:12.298Z,43.84
2023-05-03T20:16:40.557Z,44.12
2023-05-03T20:27:50.260Z,45.21
2023-05-03T20:30:52.439Z,45.44
2023-05-03T20:34:53.149Z,45.54
2023-05-03T20:42:47.674Z,45.92
2023-05-03T20:45:48.335Z,46.14
2023-05-03T20:49:48.355Z,46.22
2023-05-03T20:53:31.897Z,46.35
2023-05-03T20:59:59.484Z,46.68
2023-05-03T21:03:07.153Z,46.96
2023-05-03T21:10:47.197Z,47.45
2023-05-03T21:13:52.948Z,47.66
2023-05-03T21:16:47.687Z,47.82
2023-05-03T21:19:41.003Z,47.94
2023-05-03T21:22:33.724Z,48.05
2023-05-03T21:26:12.364Z,48.33
2023-05-03T21:29:57.704Z,48.32
2023-05-03T21:48:13.486Z,49.47
2023-05-03T21:51:33.474Z,49.59
2023-05-03T21:54:26.582Z,49.92
2023-05-03T21:57:23.199Z,49.96
2023-05-03T22:00:31.120Z,50.13
2023-05-03T22:03:23.289Z,50.39
2023-05-03T22:06:09.904Z,50.56
2023-05-03T22:09:04.378Z,50.66
2023-05-03T22:12:22.611Z,50.75
2023-05-03T22:15:12.790Z,51.04
2023-05-03T22:18:06.954Z,51.40
2023-05-03T22:20:48.359Z,51.48
2023-05-03T22:23:30.507Z,51.63
2023-05-03T22:26:11.051Z,51.83
2023-05-03T22:29:04.454Z,52.00
2023-05-03T22:32:16.004Z,52.27
2023-05-03T22:34:55.950Z,52.43
2023-05-03T22:37:50.962Z,52.72
2023-05-03T22:40:33.208Z,52.62
2023-05-03T22:43:12.068Z,52.65
2023-05-03T22:45:50.231Z,52.84
2023-05-03T22:48:36.585Z,52.93
2023-05-03T22:51:13.974Z,53.06
2023-05-03T22:54:05.290Z,53.37
2023-05-03T22:57:47.313Z,53.42
2023-05-03T23:01:03.077Z,53.38
2023-05-03T23:03:54.639Z,53.70
2023-05-03T23:07:01.705Z,53.61
2023-05-03T23:10:10.682Z,53.87
2023-05-03T23:13:14.616Z,53.82
2023-05-03T23:15:51.243Z,54.04
2023-05-03T23:18:28.679Z,54.07
2023-05-03T23:21:39.854Z,54.08
2023-05-03T23:24:13.677Z,54.31
2023-05-03T23:26:54.847Z,54.40
2023-05-03T23:29:32.323Z,54.69
2023-05-03T23:32:12.165Z,54.50
2023-05-03T23:34:53.703Z,55.20
2023-05-03T23:37:24.705Z,54.97
2023-05-03T23:40:01.626Z,55.10
2023-05-03T23:42:44.635Z,55.13
2023-05-03T23:45:28.260Z,55.42
2023-05-03T23:48:07.895Z,55.31
2023-05-03T23:50:41.774Z,55.36
2023-05-03T23:53:25.267Z,55.36
2023-05-03T23:55:59.906Z,55.43
2023-05-03T23:58:58.658Z,55.58
